createdAt,value
2022-08-03T00:02:04.035Z,26.90
2022-08-03T00:05:33.006Z,26.90
2022-08-03T00:08:56.049Z,27.00
2022-08-03T00:12:19.204Z,27.00
2022-08-03T00:15:44.282Z,26.90
2022-08-03T00:19:07.266Z,26.90
2022-08-03T00:22:30.241Z,26.90
2022-08-03T00:25:53.714Z,26.90
2022-08-03T00:29:16.769Z,26.90
2022-08-03T00:32:44.294Z,26.80
2022-08-03T00:36:08.554Z,26.80
2022-08-03T00:39:31.635Z,26.80
2022-08-03T00:42:55.936Z,26.80
2022-08-03T00:46:21.576Z,26.80
2022-08-03T00:49:46.442Z,26.80
2022-08-03T00:53:12.604Z,26.80
2022-08-03T00:56:35.653Z,26.80
2022-08-03T00:59:59.997Z,26.80
2022-08-03T01:03:22.978Z,26.80
2022-08-03T01:06:55.377Z,26.80
2022-08-03T01:10:25.945Z,26.70
2022-08-03T01:14:03.505Z,26.70
2022-08-03T01:17:50.601Z,26.70
2022-08-03T01:21:17.112Z,26.70
2022-08-03T01:24:51.642Z,26.70
2022-08-03T01:28:30.045Z,26.70
2022-08-03T01:33:00.084Z,26.70
2022-08-03T01:35:47.910Z,26.70
2022-08-03T01:39:12.089Z,26.70
2022-08-03T01:42:37.515Z,26.70
2022-08-03T01:46:01.160Z,26.60
2022-08-03T01:49:26.631Z,26.60
2022-08-03T01:52:51.446Z,26.60
2022-08-03T01:56:16.746Z,26.60
2022-08-03T01:59:41.202Z,26.60
2022-08-03T02:03:06.863Z,26.60
2022-08-03T02:07:00.668Z,26.60
2022-08-03T02:10:34.351Z,26.50
2022-08-03T02:14:00.785Z,26.50
2022-08-03T02:17:39.632Z,26.50
2022-08-03T02:21:05.390Z,26.50
2022-08-03T02:24:35.613Z,26.40
2022-08-03T02:28:02.921Z,26.40
2022-08-03T02:31:29.524Z,26.40
2022-08-03T02:34:56.861Z,26.40
2022-08-03T02:38:22.153Z,26.40
2022-08-03T02:41:48.627Z,26.30
2022-08-03T02:45:14.004Z,26.30
2022-08-03T02:48:39.318Z,26.30
2022-08-03T02:52:04.151Z,26.30
2022-08-03T02:55:28.190Z,26.30
2022-08-03T02:58:53.458Z,26.30
2022-08-03T03:02:17.838Z,26.20
2022-08-03T03:05:53.088Z,26.20
2022-08-03T03:09:21.640Z,26.20
2022-08-03T03:12:46.456Z,26.20
2022-08-03T03:16:13.376Z,26.20
2022-08-03T03:19:37.951Z,26.20
2022-08-03T03:23:01.845Z,26.20
2022-08-03T03:26:24.973Z,26.10
2022-08-03T03:29:48.418Z,26.10
2022-08-03T03:33:13.802Z,26.10
2022-08-03T03:36:37.074Z,26.10
2022-08-03T03:40:00.165Z,26.10
2022-08-03T03:43:24.821Z,26.10
2022-08-03T03:46:48.030Z,26.10
2022-08-03T03:50:13.851Z,26.00
2022-08-03T03:53:36.873Z,26.00
2022-08-03T03:56:59.914Z,26.00
2022-08-03T04:00:23.523Z,26.00
2022-08-03T04:03:46.759Z,26.00
2022-08-03T04:07:29.074Z,26.00
2022-08-03T04:11:03.730Z,26.00
2022-08-03T04:14:30.532Z,26.00
2022-08-03T04:17:56.949Z,26.00
2022-08-03T04:21:23.433Z,26.00
2022-08-03T04:24:50.285Z,26.00
2022-08-03T04:28:30.741Z,25.90
2022-08-03T04:31:57.090Z,25.90
2022-08-03T04:35:20.847Z,25.90
2022-08-03T04:39:06.309Z,25.90
2022-08-03T04:42:34.262Z,25.90
2022-08-03T04:45:58.322Z,25.90
2022-08-03T04:49:22.698Z,25.80
2022-08-03T04:52:46.282Z,25.80
2022-08-03T04:56:09.750Z,25.80
2022-08-03T04:59:34.229Z,25.80
2022-08-03T05:03:02.170Z,25.80
2022-08-03T05:06:25.294Z,25.80
2022-08-03T05:09:50.628Z,25.80
2022-08-03T05:13:15.957Z,25.80
2022-08-03T05:16:40.473Z,25.80
2022-08-03T05:20:04.433Z,25.80
2022-08-03T05:23:27.452Z,25.80
2022-08-03T05:26:50.404Z,25.80
2022-08-03T05:30:31.533Z,25.70
2022-08-03T05:33:58.322Z,25.70
2022-08-03T05:37:21.513Z,25.70
2022-08-03T05:40:57.663Z,25.70
2022-08-03T05:44:27.685Z,25.70
2022-08-03T05:47:51.025Z,25.70
2022-08-03T05:51:15.384Z,25.70
2022-08-03T05:54:56.077Z,25.70
2022-08-03T05:58:20.052Z,25.70
2022-08-03T06:01:43.064Z,25.70
2022-08-03T06:05:07.212Z,25.70
2022-08-03T06:08:31.566Z,25.70
2022-08-03T06:11:54.580Z,25.70
2022-08-03T06:15:18.681Z,25.70
2022-08-03T06:18:41.657Z,25.70
2022-08-03T06:22:04.800Z,26.00
2022-08-03T06:25:29.357Z,25.70
2022-08-03T06:28:54.260Z,25.70
2022-08-03T06:32:17.708Z,25.70
2022-08-03T06:35:42.446Z,25.70
2022-08-03T06:39:06.011Z,25.70
2022-08-03T06:42:32.605Z,25.70
2022-08-03T06:45:57.682Z,25.70
2022-08-03T06:49:20.770Z,25.70
2022-08-03T06:52:43.781Z,25.70
2022-08-03T06:56:07.819Z,25.70
2022-08-03T07:00:05.993Z,25.70
2022-08-03T07:03:15.219Z,25.70
2022-08-03T07:06:38.900Z,25.70
2022-08-03T07:10:02.535Z,25.70
2022-08-03T07:13:25.637Z,25.70
2022-08-03T07:16:50.060Z,25.70
2022-08-03T07:20:15.165Z,25.70
2022-08-03T07:23:38.157Z,25.50
2022-08-03T07:27:01.242Z,25.80
2022-08-03T07:30:24.780Z,25.80
2022-08-03T07:33:49.183Z,26.30
2022-08-03T07:37:12.388Z,25.80
2022-08-03T07:40:35.790Z,25.80
2022-08-03T07:43:58.862Z,25.80
2022-08-03T07:47:34.991Z,25.80
2022-08-03T07:51:00.182Z,25.80
2022-08-03T07:54:23.158Z,25.80
2022-08-03T07:57:46.167Z,26.20
2022-08-03T08:01:09.419Z,25.90
2022-08-03T08:04:32.441Z,25.00
2022-08-03T08:07:57.049Z,26.40
2022-08-03T08:11:22.135Z,25.90
2022-08-03T08:14:46.716Z,26.20
2022-08-03T08:18:09.800Z,26.10
2022-08-03T08:21:53.192Z,25.90
2022-08-03T08:25:17.185Z,25.90
2022-08-03T08:28:42.518Z,26.00
2022-08-03T08:32:06.109Z,26.00
2022-08-03T08:35:29.280Z,26.00
2022-08-03T08:38:52.323Z,26.00
2022-08-03T08:42:16.975Z,26.00
2022-08-03T08:45:41.601Z,26.00
2022-08-03T08:49:05.266Z,26.00
2022-08-03T08:52:32.149Z,26.00
2022-08-03T08:56:00.721Z,26.20
2022-08-03T08:59:26.256Z,26.10
2022-08-03T09:02:49.362Z,25.90
2022-08-03T09:06:12.368Z,26.10
2022-08-03T09:10:11.886Z,26.20
2022-08-03T09:13:18.414Z,26.70
2022-08-03T09:16:56.922Z,26.20
2022-08-03T09:20:20.759Z,26.30
2022-08-03T09:24:01.380Z,26.20
2022-08-03T09:27:26.142Z,26.20
2022-08-03T09:31:00.664Z,26.20
2022-08-03T09:34:28.425Z,26.30
2022-08-03T09:38:12.336Z,26.30
2022-08-03T09:41:37.694Z,26.40
2022-08-03T09:45:00.719Z,27.80
2022-08-03T09:48:25.517Z,26.10
2022-08-03T09:52:30.130Z,26.70
2022-08-03T09:56:36.451Z,26.30
2022-08-03T09:59:26.388Z,26.40
2022-08-03T10:02:50.581Z,26.40
2022-08-03T10:06:17.640Z,26.40
2022-08-03T10:09:55.188Z,26.40
2022-08-03T10:13:19.483Z,26.50
2022-08-03T10:16:42.459Z,26.50
2022-08-03T10:20:06.815Z,26.50
2022-08-03T10:23:33.958Z,26.50
2022-08-03T10:27:03.464Z,26.50
2022-08-03T10:30:29.284Z,26.10
2022-08-03T10:33:58.029Z,26.70
2022-08-03T10:37:26.047Z,26.60
2022-08-03T10:40:58.667Z,26.60
2022-08-03T10:44:27.093Z,26.60
2022-08-03T10:47:51.205Z,26.60
2022-08-03T10:51:15.194Z,26.70
2022-08-03T10:54:56.790Z,26.70
2022-08-03T10:58:56.998Z,26.70
2022-08-03T11:02:22.235Z,26.70
2022-08-03T11:05:46.302Z,26.90
2022-08-03T11:09:19.906Z,26.70
2022-08-03T11:12:43.861Z,26.80
2022-08-03T11:16:23.090Z,26.80
2022-08-03T11:19:57.596Z,26.90
2022-08-03T11:24:05.307Z,27.00
2022-08-03T11:27:24.720Z,26.80
2022-08-03T11:30:47.736Z,26.90
2022-08-03T11:34:11.708Z,26.90
2022-08-03T11:37:37.755Z,27.00
2022-08-03T11:41:02.631Z,26.90
2022-08-03T11:44:41.426Z,26.60
2022-08-03T11:48:17.838Z,27.10
2022-08-03T11:51:41.270Z,27.00
2022-08-03T11:55:13.682Z,26.80
2022-08-03T11:59:00.775Z,27.00
2022-08-03T12:02:19.650Z,27.00
2022-08-03T12:05:51.138Z,27.00
2022-08-03T12:09:18.051Z,27.10
2022-08-03T12:12:46.857Z,27.10
2022-08-03T12:16:10.226Z,27.10
2022-08-03T12:19:43.448Z,27.10
2022-08-03T12:23:07.795Z,27.10
2022-08-03T12:26:31.821Z,27.20
2022-08-03T12:29:58.907Z,27.20
2022-08-03T12:33:27.077Z,27.20
2022-08-03T12:36:53.229Z,27.20
2022-08-03T12:40:20.573Z,27.20
2022-08-03T12:43:49.262Z,27.30
2022-08-03T12:47:13.726Z,27.30
2022-08-03T12:50:38.153Z,27.30
2022-08-03T12:54:01.943Z,27.30
2022-08-03T12:57:25.597Z,27.30
2022-08-03T13:00:57.030Z,27.40
2022-08-03T13:04:28.917Z,27.40
2022-08-03T13:07:54.721Z,27.40
2022-08-03T13:11:50.568Z,27.40
2022-08-03T13:15:09.726Z,27.40
2022-08-03T13:18:32.713Z,27.50
2022-08-03T13:22:03.985Z,27.50
2022-08-03T13:25:27.865Z,27.50
2022-08-03T13:28:50.831Z,27.50
2022-08-03T13:32:13.859Z,27.50
2022-08-03T13:35:36.877Z,27.60
2022-08-03T13:39:01.219Z,27.60
2022-08-03T13:42:26.374Z,27.60
2022-08-03T13:45:53.510Z,27.60
2022-08-03T13:49:18.030Z,27.60
2022-08-03T13:52:41.031Z,27.70
2022-08-03T13:56:05.798Z,27.70
2022-08-03T13:59:28.921Z,27.70
2022-08-03T14:02:51.914Z,27.70
2022-08-03T14:06:14.893Z,27.70
2022-08-03T14:09:37.922Z,27.70
2022-08-03T14:13:02.353Z,27.80
2022-08-03T14:16:25.317Z,27.80
2022-08-03T14:19:53.079Z,27.80
2022-08-03T14:23:17.351Z,27.80
2022-08-03T14:26:40.274Z,27.80
2022-08-03T14:30:05.248Z,27.90
2022-08-03T14:33:29.348Z,27.90
2022-08-03T14:36:52.406Z,27.90
2022-08-03T14:40:15.506Z,27.90
2022-08-03T14:43:38.793Z,27.90
2022-08-03T14:47:03.099Z,28.00
2022-08-03T14:50:35.966Z,28.00
2022-08-03T14:54:03.908Z,28.00
2022-08-03T14:57:27.529Z,28.00
2022-08-03T15:00:51.363Z,28.10
2022-08-03T15:04:16.263Z,28.10
2022-08-03T15:07:39.434Z,28.10
2022-08-03T15:11:02.440Z,28.10
2022-08-03T15:14:28.307Z,28.10
2022-08-03T15:18:00.268Z,28.10
2022-08-03T15:21:47.365Z,28.20
2022-08-03T15:26:03.567Z,28.20
2022-08-03T15:28:52.081Z,28.20
2022-08-03T15:32:15.092Z,28.20
2022-08-03T15:35:38.149Z,28.20
2022-08-03T15:39:02.608Z,28.20
2022-08-03T15:42:25.627Z,28.20
2022-08-03T15:46:12.822Z,28.30
2022-08-03T15:49:33.638Z,28.30
2022-08-03T15:52:57.667Z,28.30
2022-08-03T15:56:22.022Z,28.30
2022-08-03T15:59:44.993Z,28.30
2022-08-03T16:03:08.049Z,28.30
2022-08-03T16:06:36.059Z,28.30
2022-08-03T16:09:59.461Z,28.40
2022-08-03T16:14:14.089Z,28.40
2022-08-03T16:17:06.975Z,28.40
2022-08-03T16:20:33.906Z,28.40
2022-08-03T16:23:58.235Z,28.40
2022-08-03T16:27:37.083Z,28.40
2022-08-03T16:31:06.841Z,28.40
2022-08-03T16:34:29.866Z,28.40
2022-08-03T16:37:56.893Z,28.50
2022-08-03T16:41:20.028Z,28.50
2022-08-03T16:44:43.342Z,28.50
2022-08-03T16:48:08.377Z,28.50
2022-08-03T16:51:40.372Z,28.50
2022-08-03T16:55:15.534Z,28.50
2022-08-03T16:58:42.516Z,28.50
2022-08-03T17:02:10.430Z,28.50
2022-08-03T17:05:47.125Z,28.50
2022-08-03T17:09:18.095Z,28.50
2022-08-03T17:12:41.374Z,28.50
2022-08-03T17:16:05.626Z,28.50
2022-08-03T17:19:34.782Z,28.60
2022-08-03T17:23:24.231Z,28.60
2022-08-03T17:26:52.806Z,28.60
2022-08-03T17:30:18.918Z,28.60
2022-08-03T17:33:42.530Z,28.60
2022-08-03T17:37:49.819Z,28.60
2022-08-03T17:41:10.826Z,28.60
2022-08-03T17:44:41.472Z,28.60
2022-08-03T17:48:09.258Z,28.60
2022-08-03T17:51:46.500Z,28.70
2022-08-03T17:55:55.442Z,28.70
2022-08-03T17:59:13.995Z,28.70
2022-08-03T18:03:06.655Z,28.70
2022-08-03T18:06:36.568Z,28.70
2022-08-03T18:10:04.008Z,28.70
2022-08-03T18:13:32.212Z,28.70
2022-08-03T18:17:02.247Z,28.70
2022-08-03T18:20:32.094Z,28.70
2022-08-03T18:24:02.535Z,28.70
2022-08-03T18:27:45.941Z,28.80
2022-08-03T18:31:11.969Z,28.80
2022-08-03T18:34:41.061Z,28.80
2022-08-03T18:38:18.772Z,28.80
2022-08-03T18:41:46.424Z,28.80
2022-08-03T18:45:14.684Z,28.80
2022-08-03T18:49:00.831Z,28.80
2022-08-03T18:52:38.698Z,28.80
2022-08-03T18:56:14.501Z,28.80
2022-08-03T18:59:45.963Z,28.80
2022-08-03T19:03:20.417Z,28.80
2022-08-03T19:06:48.745Z,28.80
2022-08-03T19:10:16.026Z,28.80
2022-08-03T19:13:50.272Z,28.80
2022-08-03T19:17:14.114Z,28.80
2022-08-03T19:20:46.739Z,28.80
2022-08-03T19:24:10.183Z,28.80
2022-08-03T19:27:35.694Z,28.80
2022-08-03T19:31:02.674Z,28.80
2022-08-03T19:34:33.078Z,28.80
2022-08-03T19:37:56.586Z,28.80
2022-08-03T19:41:22.590Z,28.80
2022-08-03T19:44:54.412Z,28.80
2022-08-03T19:48:22.199Z,28.80
2022-08-03T19:52:00.523Z,28.80
2022-08-03T19:55:29.785Z,28.70
2022-08-03T19:58:56.430Z,28.70
2022-08-03T20:02:26.579Z,28.70
2022-08-03T20:06:04.901Z,28.70
2022-08-03T20:09:30.383Z,28.70
2022-08-03T20:12:54.044Z,28.70
2022-08-03T20:16:17.125Z,28.70
2022-08-03T20:19:42.542Z,28.70
2022-08-03T20:23:07.588Z,28.70
2022-08-03T20:26:31.665Z,28.70
2022-08-03T20:30:06.206Z,28.70
2022-08-03T20:33:46.679Z,28.70
2022-08-03T20:37:13.567Z,28.60
2022-08-03T20:40:36.794Z,28.60
2022-08-03T20:44:02.030Z,28.60
2022-08-03T20:47:25.957Z,28.60
2022-08-03T20:50:56.273Z,28.60
2022-08-03T20:54:29.389Z,28.60
2022-08-03T20:57:54.817Z,28.60
2022-08-03T21:01:18.224Z,28.60
2022-08-03T21:04:51.036Z,28.60
2022-08-03T21:08:18.937Z,28.50
2022-08-03T21:11:45.221Z,28.50
2022-08-03T21:15:10.315Z,28.50
2022-08-03T21:18:54.391Z,28.50
2022-08-03T21:22:21.032Z,28.50
2022-08-03T21:25:45.198Z,28.50
2022-08-03T21:29:14.049Z,28.50
2022-08-03T21:32:40.072Z,28.50
2022-08-03T21:36:03.509Z,28.50
2022-08-03T21:39:26.981Z,28.50
2022-08-03T21:42:50.009Z,28.50
2022-08-03T21:46:15.389Z,28.50
2022-08-03T21:50:04.303Z,28.50
2022-08-03T21:53:21.734Z,28.50
2022-08-03T21:56:48.076Z,28.40
2022-08-03T22:00:14.555Z,28.40
2022-08-03T22:03:52.950Z,28.40
2022-08-03T22:07:17.344Z,28.40
2022-08-03T22:10:40.687Z,28.40
2022-08-03T22:14:04.381Z,28.40
2022-08-03T22:17:53.859Z,28.40
2022-08-03T22:21:15.634Z,28.40
2022-08-03T22:24:38.819Z,28.40
2022-08-03T22:28:03.635Z,28.30
2022-08-03T22:31:30.768Z,28.30
2022-08-03T22:35:12.176Z,28.30
2022-08-03T22:38:36.989Z,28.30
2022-08-03T22:42:00.548Z,28.30
2022-08-03T22:46:07.385Z,28.30
2022-08-03T22:49:07.589Z,28.30
2022-08-03T22:52:31.005Z,28.30
2022-08-03T22:55:56.708Z,28.30
2022-08-03T22:59:41.351Z,28.30
2022-08-03T23:03:07.260Z,28.30
2022-08-03T23:06:36.524Z,28.20
2022-08-03T23:10:02.642Z,28.20
2022-08-03T23:13:30.824Z,28.20
2022-08-03T23:16:56.603Z,28.20
2022-08-03T23:20:20.851Z,28.20
2022-08-03T23:23:49.614Z,28.20
2022-08-03T23:27:13.216Z,28.20
2022-08-03T23:30:38.671Z,28.20
2022-08-03T23:34:19.410Z,28.20
2022-08-03T23:38:21.411Z,28.20
2022-08-03T23:41:25.542Z,28.10
2022-08-03T23:44:52.659Z,28.10
2022-08-03T23:48:18.126Z,28.10
2022-08-03T23:51:48.813Z,28.10
2022-08-03T23:55:22.291Z,28.10
2022-08-03T23:58:58.491Z,28.10
